createdAt,value
2023-05-10T00:00:47.803Z,16.03
2023-05-10T00:03:14.817Z,12.67
2023-05-10T00:05:42.137Z,13.47
2023-05-10T00:08:09.174Z,11.87
2023-05-10T00:10:37.267Z,12.97
2023-05-10T00:13:04.702Z,12.57
2023-05-10T00:15:31.972Z,14.33
2023-05-10T00:17:59.053Z,12.67
2023-05-10T00:20:26.291Z,16.33
2023-05-10T00:22:53.236Z,13.53
2023-05-10T00:25:22.529Z,12.57
2023-05-10T00:27:49.604Z,12.73
2023-05-10T00:30:17.725Z,14.00
2023-05-10T00:32:44.983Z,12.40
2023-05-10T00:35:12.220Z,12.23
2023-05-10T00:37:39.064Z,15.17
2023-05-10T00:40:07.469Z,14.77
2023-05-10T00:42:34.518Z,16.27
2023-05-10T00:45:01.751Z,14.27
2023-05-10T00:47:29.165Z,14.20
2023-05-10T00:49:56.876Z,14.97
2023-05-10T00:52:24.771Z,15.63
2023-05-10T00:54:53.353Z,15.37
2023-05-10T00:57:20.580Z,13.55
2023-05-10T00:59:47.863Z,13.53
2023-05-10T01:02:15.054Z,13.53
2023-05-10T01:04:42.388Z,15.73
2023-05-10T01:07:09.284Z,13.40
2023-05-10T01:09:36.794Z,13.43
2023-05-10T01:12:04.646Z,14.30
2023-05-10T01:14:32.025Z,14.60
2023-05-10T01:16:59.210Z,10.10
2023-05-10T01:19:28.272Z,12.93
2023-05-10T01:22:17.104Z,12.43
2023-05-10T01:25:20.294Z,12.97
2023-05-10T01:27:59.024Z,11.07
2023-05-10T01:33:24.111Z,12.23
2023-05-10T01:36:14.772Z,17.63
2023-05-10T01:38:51.662Z,11.90
2023-05-10T01:41:29.240Z,14.67
2023-05-10T01:44:10.916Z,9.70
2023-05-10T01:46:40.736Z,13.60
2023-05-10T01:49:13.204Z,11.00
2023-05-10T01:51:47.364Z,14.77
2023-05-10T01:54:18.493Z,14.27
2023-05-10T01:56:48.979Z,15.20
2023-05-10T01:59:19.491Z,16.50
2023-05-10T02:01:48.719Z,10.60
2023-05-10T02:04:18.617Z,11.40
2023-05-10T02:06:48.971Z,10.67
2023-05-10T02:09:17.401Z,13.77
2023-05-10T02:11:45.250Z,13.05
2023-05-10T02:14:12.919Z,13.33
2023-05-10T02:16:41.709Z,11.97
2023-05-10T02:19:10.028Z,15.65
2023-05-10T02:21:38.660Z,13.90
2023-05-10T02:24:06.531Z,16.75
2023-05-10T02:26:36.265Z,16.57
2023-05-10T02:29:06.045Z,14.67
2023-05-10T02:31:34.090Z,14.77
2023-05-10T02:34:02.513Z,12.67
2023-05-10T02:36:30.870Z,18.05
2023-05-10T02:38:59.934Z,16.97
2023-05-10T02:41:28.115Z,13.80
2023-05-10T02:44:00.335Z,12.20
2023-05-10T02:46:27.673Z,15.10
2023-05-10T02:48:54.960Z,12.57
2023-05-10T02:51:26.368Z,12.63
2023-05-10T02:53:56.224Z,18.33
2023-05-10T02:56:32.766Z,14.07
2023-05-10T02:58:59.626Z,16.17
2023-05-10T03:01:26.872Z,15.27
2023-05-10T03:03:53.868Z,23.27
2023-05-10T03:06:21.026Z,21.87
2023-05-10T03:08:48.070Z,18.73
2023-05-10T03:11:33.136Z,18.60
2023-05-10T03:14:22.315Z,17.47
2023-05-10T03:17:11.153Z,20.97
2023-05-10T03:19:57.110Z,20.48
2023-05-10T03:22:30.334Z,18.50
2023-05-10T03:24:58.742Z,18.93
2023-05-10T03:27:28.138Z,20.20
2023-05-10T03:32:24.246Z,22.63
2023-05-10T03:34:51.425Z,22.00
2023-05-10T03:37:18.673Z,24.23
2023-05-10T03:39:45.616Z,23.67
2023-05-10T03:42:13.095Z,27.13
2023-05-10T03:44:40.852Z,28.30
2023-05-10T03:47:08.187Z,33.17
2023-05-10T03:49:35.140Z,33.60
2023-05-10T03:52:02.302Z,53.37
2023-05-10T03:54:29.168Z,27.33
2023-05-10T03:56:56.321Z,23.37
2023-05-10T03:59:23.186Z,23.00
2023-05-10T04:01:50.648Z,17.13
2023-05-10T04:04:19.829Z,17.27
2023-05-10T04:06:47.405Z,16.70
2023-05-10T04:09:14.701Z,19.90
2023-05-10T04:11:41.885Z,10.03
2023-05-10T04:14:09.021Z,28.53
2023-05-10T04:16:36.257Z,9.33
2023-05-10T04:19:03.978Z,10.03
2023-05-10T04:21:31.527Z,13.37
2023-05-10T04:23:58.505Z,18.80
2023-05-10T04:26:26.636Z,25.97
2023-05-10T04:28:53.536Z,51.80
2023-05-10T04:31:20.780Z,24.00
2023-05-10T04:33:47.620Z,19.10
2023-05-10T04:36:14.772Z,18.13
2023-05-10T04:38:41.646Z,17.92
2023-05-10T04:41:10.249Z,13.23
2023-05-10T04:43:37.648Z,11.40
2023-05-10T04:46:05.758Z,14.40
2023-05-10T04:48:32.908Z,16.13
2023-05-10T04:51:00.273Z,20.42
2023-05-10T04:53:27.247Z,17.00
2023-05-10T04:55:54.413Z,22.13
2023-05-10T04:58:21.238Z,15.75
2023-05-10T05:00:48.427Z,9.55
2023-05-10T05:03:15.407Z,14.90
2023-05-10T05:05:42.624Z,8.32
2023-05-10T05:08:09.977Z,8.45
2023-05-10T05:10:37.114Z,8.60
2023-05-10T05:13:03.989Z,8.95
2023-05-10T05:15:31.745Z,11.40
2023-05-10T05:17:58.795Z,8.02
2023-05-10T05:20:26.094Z,6.97
2023-05-10T05:22:53.001Z,8.05
2023-05-10T05:25:20.182Z,9.38
2023-05-10T05:27:47.071Z,9.55
2023-05-10T05:30:14.449Z,6.47
2023-05-10T05:32:41.531Z,9.23
2023-05-10T05:35:09.060Z,12.32
2023-05-10T05:37:36.430Z,8.00
2023-05-10T05:40:04.014Z,4.32
2023-05-10T05:42:32.451Z,6.47
2023-05-10T05:45:00.008Z,8.75
2023-05-10T05:47:26.916Z,4.57
2023-05-10T05:49:54.027Z,4.75
2023-05-10T05:52:22.321Z,6.47
2023-05-10T05:54:49.350Z,10.32
2023-05-10T05:57:16.533Z,5.38
2023-05-10T05:59:44.947Z,3.92
2023-05-10T06:02:12.318Z,5.00
2023-05-10T06:04:39.339Z,4.75
2023-05-10T06:07:06.879Z,6.75
2023-05-10T06:09:33.696Z,7.53
2023-05-10T06:12:00.810Z,6.07
2023-05-10T06:14:28.135Z,7.35
2023-05-10T06:16:55.353Z,7.22
2023-05-10T06:19:22.257Z,3.65
2023-05-10T06:21:50.089Z,5.20
2023-05-10T06:24:17.547Z,6.32
2023-05-10T06:26:44.663Z,4.47
2023-05-10T06:29:11.457Z,4.57
2023-05-10T06:31:38.690Z,4.97
2023-05-10T06:34:05.628Z,3.83
2023-05-10T06:36:32.792Z,3.75
2023-05-10T06:38:59.653Z,4.85
2023-05-10T06:41:26.753Z,6.88
2023-05-10T06:43:53.648Z,4.97
2023-05-10T06:46:20.765Z,4.10
2023-05-10T06:48:47.717Z,7.13
2023-05-10T06:51:14.898Z,7.03
2023-05-10T06:53:41.750Z,7.30
2023-05-10T06:56:08.888Z,4.47
2023-05-10T06:58:35.773Z,3.78
2023-05-10T07:01:04.502Z,4.00
2023-05-10T07:03:31.900Z,4.13
2023-05-10T07:06:04.315Z,6.85
2023-05-10T07:08:32.893Z,8.10
2023-05-10T07:11:02.848Z,3.75
2023-05-10T07:13:29.926Z,6.03
2023-05-10T07:15:57.098Z,7.68
2023-05-10T07:18:24.066Z,3.67
2023-05-10T07:20:51.439Z,5.93
2023-05-10T07:23:21.333Z,10.57
2023-05-10T07:25:49.649Z,7.57
2023-05-10T07:28:17.378Z,6.22
2023-05-10T07:30:44.754Z,8.27
2023-05-10T07:33:14.132Z,5.03
2023-05-10T07:35:41.465Z,5.72
2023-05-10T07:38:08.406Z,5.55
2023-05-10T07:40:35.579Z,7.22
2023-05-10T07:43:03.218Z,5.32
2023-05-10T07:45:30.477Z,6.10
2023-05-10T07:47:57.587Z,6.40
2023-05-10T07:50:24.886Z,6.32
2023-05-10T07:52:51.800Z,8.65
2023-05-10T07:55:19.999Z,6.05
2023-05-10T07:57:46.870Z,4.20
2023-05-10T08:00:17.898Z,6.43
2023-05-10T08:02:45.075Z,5.35
2023-05-10T08:05:12.486Z,6.15
2023-05-10T08:07:39.387Z,4.63
2023-05-10T08:10:07.530Z,8.63
2023-05-10T08:12:34.345Z,3.92
2023-05-10T08:15:01.552Z,8.30
2023-05-10T08:17:28.427Z,5.03
2023-05-10T08:19:55.721Z,4.32
2023-05-10T08:22:22.564Z,10.18
2023-05-10T08:24:49.639Z,3.38
2023-05-10T08:27:16.565Z,7.35
2023-05-10T08:29:50.082Z,7.70
2023-05-10T08:32:17.235Z,9.48
2023-05-10T08:34:44.544Z,5.78
2023-05-10T08:37:14.193Z,3.03
2023-05-10T08:39:41.916Z,3.13
2023-05-10T08:42:10.371Z,4.57
2023-05-10T08:44:38.037Z,6.05
2023-05-10T08:47:10.220Z,4.70
2023-05-10T08:49:38.573Z,7.78
2023-05-10T08:52:07.219Z,7.63
2023-05-10T08:54:34.763Z,4.55
2023-05-10T08:57:02.278Z,2.33
2023-05-10T08:59:29.899Z,3.88
2023-05-10T09:02:00.273Z,7.28
2023-05-10T09:04:27.759Z,4.90
2023-05-10T09:06:55.470Z,5.57
2023-05-10T09:09:23.171Z,8.55
2023-05-10T09:11:50.278Z,3.78
2023-05-10T09:14:18.689Z,6.00
2023-05-10T09:16:45.882Z,2.70
2023-05-10T09:19:13.239Z,5.43
2023-05-10T09:21:40.274Z,3.25
2023-05-10T09:24:09.158Z,5.88
2023-05-10T09:26:37.310Z,5.88
2023-05-10T09:29:04.835Z,3.70
2023-05-10T09:31:52.721Z,5.45
2023-05-10T09:34:22.101Z,3.08
2023-05-10T09:39:20.136Z,5.72
2023-05-10T09:41:47.075Z,2.53
2023-05-10T09:44:19.600Z,3.83
2023-05-10T09:46:51.027Z,8.25
2023-05-10T09:49:18.164Z,7.05
2023-05-10T09:51:44.947Z,5.20
2023-05-10T09:54:16.134Z,6.70
2023-05-10T09:56:43.592Z,3.63
2023-05-10T09:59:12.965Z,6.47
2023-05-10T10:04:12.049Z,5.72
2023-05-10T10:06:40.325Z,5.82
2023-05-10T10:09:08.885Z,5.15
2023-05-10T10:11:37.854Z,7.05
2023-05-10T10:14:06.136Z,4.90
2023-05-10T10:16:33.489Z,5.57
2023-05-10T10:19:01.842Z,8.45
2023-05-10T10:21:29.131Z,4.70
2023-05-10T10:23:56.328Z,13.65
2023-05-10T10:26:24.216Z,5.13
2023-05-10T10:29:32.363Z,5.37
2023-05-10T10:31:59.943Z,7.43
2023-05-10T10:34:29.400Z,11.63
2023-05-10T10:39:28.156Z,4.88
2023-05-10T10:41:57.035Z,4.38
2023-05-10T10:44:25.331Z,5.05
2023-05-10T10:47:15.387Z,6.28
2023-05-10T10:49:42.674Z,3.65
2023-05-10T10:52:32.189Z,5.50
2023-05-10T10:55:30.853Z,3.05
2023-05-10T10:58:05.491Z,7.32
2023-05-10T11:00:42.035Z,5.50
2023-05-10T11:03:19.903Z,4.18
2023-05-10T11:05:48.817Z,16.23
2023-05-10T11:08:27.436Z,9.18
2023-05-10T11:11:00.950Z,5.85
2023-05-10T11:13:36.011Z,5.38
2023-05-10T11:16:13.602Z,10.45
2023-05-10T11:18:40.780Z,4.43
2023-05-10T11:21:13.065Z,2.72
2023-05-10T11:23:50.061Z,3.88
2023-05-10T11:26:17.356Z,5.13
2023-05-10T11:28:44.549Z,9.98
2023-05-10T11:31:14.376Z,4.47
2023-05-10T11:33:46.007Z,3.47
2023-05-10T11:36:15.780Z,6.22
2023-05-10T11:38:43.137Z,5.13
2023-05-10T11:41:12.412Z,5.88
2023-05-10T11:43:43.100Z,6.40
2023-05-10T11:46:14.796Z,3.92
2023-05-10T11:48:42.821Z,5.80
2023-05-10T11:51:11.533Z,4.30
2023-05-10T11:53:39.222Z,4.40
2023-05-10T11:56:10.957Z,4.03
2023-05-10T11:58:39.537Z,8.10
2023-05-10T12:01:08.730Z,5.03
2023-05-10T12:03:36.384Z,3.67
2023-05-10T12:06:04.325Z,6.38
2023-05-10T12:08:32.001Z,5.82
2023-05-10T12:11:11.457Z,3.70
2023-05-10T12:13:47.465Z,2.90
2023-05-10T12:16:17.161Z,5.93
2023-05-10T12:18:44.451Z,3.15
2023-05-10T12:21:16.289Z,5.00
2023-05-10T12:23:43.343Z,4.38
2023-05-10T12:26:11.529Z,6.35
2023-05-10T12:28:39.076Z,5.15
2023-05-10T12:31:07.298Z,6.50
2023-05-10T12:33:44.988Z,7.78
2023-05-10T12:36:14.204Z,13.30
2023-05-10T12:38:48.622Z,5.40
2023-05-10T12:41:18.725Z,3.10
2023-05-10T12:43:49.277Z,5.65
2023-05-10T12:46:18.609Z,4.63
2023-05-10T12:49:00.166Z,16.92
2023-05-10T12:51:34.175Z,16.70
2023-05-10T12:54:01.060Z,5.07
2023-05-10T12:56:28.204Z,4.28
2023-05-10T12:58:55.057Z,3.85
2023-05-10T13:01:22.359Z,2.88
2023-05-10T13:03:49.213Z,7.53
2023-05-10T13:06:16.366Z,3.85
2023-05-10T13:08:43.250Z,4.35
2023-05-10T13:11:10.554Z,7.75
2023-05-10T13:13:37.406Z,8.13
2023-05-10T13:16:04.947Z,3.22
2023-05-10T13:18:32.019Z,3.60
2023-05-10T13:20:59.345Z,10.50
2023-05-10T13:23:26.235Z,3.67
2023-05-10T13:25:53.384Z,4.28
2023-05-10T13:28:20.195Z,4.85
2023-05-10T13:30:47.437Z,4.97
2023-05-10T13:33:14.279Z,4.40
2023-05-10T13:35:41.441Z,3.47
2023-05-10T13:38:09.050Z,2.83
2023-05-10T13:40:37.010Z,4.20
2023-05-10T13:43:03.881Z,5.43
2023-05-10T13:45:31.026Z,4.82
2023-05-10T13:47:58.264Z,8.88
2023-05-10T13:50:25.721Z,3.55
2023-05-10T13:52:52.649Z,3.30
2023-05-10T13:55:20.143Z,3.75
2023-05-10T13:57:47.169Z,7.18
2023-05-10T14:00:14.887Z,3.97
2023-05-10T14:02:41.945Z,6.95
2023-05-10T14:05:09.405Z,7.43
2023-05-10T14:07:36.514Z,4.22
2023-05-10T14:10:03.946Z,4.50
2023-05-10T14:12:31.230Z,7.35
2023-05-10T14:14:59.188Z,3.10
2023-05-10T14:17:26.065Z,5.60
2023-05-10T14:19:54.217Z,3.15
2023-05-10T14:22:21.122Z,6.15
2023-05-10T14:24:48.392Z,3.13
2023-05-10T14:27:15.281Z,3.50
2023-05-10T14:29:42.707Z,2.08
2023-05-10T14:32:10.126Z,5.40
2023-05-10T14:34:37.398Z,5.57
2023-05-10T14:37:04.255Z,4.80
2023-05-10T14:39:31.575Z,2.85
2023-05-10T14:41:59.597Z,7.35
2023-05-10T14:44:27.268Z,10.13
2023-05-10T14:46:54.152Z,3.90
2023-05-10T14:49:23.776Z,3.92
2023-05-10T14:54:17.697Z,5.25
2023-05-10T14:56:44.739Z,5.13
2023-05-10T14:59:11.881Z,5.28
2023-05-10T15:01:42.312Z,2.65
2023-05-10T15:04:10.118Z,6.38
2023-05-10T15:06:37.966Z,8.88
2023-05-10T15:09:05.184Z,2.65
2023-05-10T15:11:32.096Z,5.63
2023-05-10T15:13:59.292Z,8.57
2023-05-10T15:16:26.332Z,8.73
2023-05-10T15:18:53.953Z,6.55
2023-05-10T15:21:20.831Z,6.93
2023-05-10T15:23:48.108Z,3.47
2023-05-10T15:26:15.042Z,3.30
2023-05-10T15:28:42.270Z,3.75
2023-05-10T15:31:09.190Z,3.35
2023-05-10T15:33:38.268Z,5.88
2023-05-10T15:36:05.384Z,2.72
2023-05-10T15:38:32.614Z,5.20
2023-05-10T15:40:59.575Z,6.55
2023-05-10T15:43:26.687Z,5.63
2023-05-10T15:45:53.509Z,3.47
2023-05-10T15:48:20.664Z,6.18
2023-05-10T15:50:47.516Z,3.55
2023-05-10T15:53:14.799Z,4.93
2023-05-10T15:55:41.655Z,6.20
2023-05-10T15:58:08.840Z,3.13
2023-05-10T16:00:35.874Z,5.25
2023-05-10T16:03:03.276Z,3.33
2023-05-10T16:05:33.606Z,7.22
2023-05-10T16:08:03.533Z,8.00
2023-05-10T16:10:33.356Z,3.95
2023-05-10T16:13:01.947Z,4.20
2023-05-10T16:15:28.832Z,6.97
2023-05-10T16:17:56.686Z,5.35
2023-05-10T16:20:24.105Z,5.55
2023-05-10T16:22:51.409Z,2.88
2023-05-10T16:25:18.523Z,10.73
2023-05-10T16:27:46.040Z,3.80
2023-05-10T16:30:13.087Z,11.75
2023-05-10T16:32:40.208Z,8.52
2023-05-10T16:35:07.790Z,3.35
2023-05-10T16:37:35.033Z,4.20
2023-05-10T16:40:02.208Z,6.75
2023-05-10T16:42:30.284Z,6.90
2023-05-10T16:44:57.150Z,6.18
2023-05-10T16:47:26.846Z,6.90
2023-05-10T16:49:53.939Z,5.10
2023-05-10T16:52:21.106Z,3.53
2023-05-10T16:54:48.035Z,3.47
2023-05-10T16:57:15.169Z,4.38
2023-05-10T16:59:42.105Z,4.22
2023-05-10T17:02:09.421Z,4.70
2023-05-10T17:04:36.465Z,5.82
2023-05-10T17:07:03.781Z,6.93
2023-05-10T17:09:30.759Z,2.70
2023-05-10T17:11:57.964Z,6.68
2023-05-10T17:14:24.953Z,3.03
2023-05-10T17:16:53.211Z,5.50
2023-05-10T17:19:20.208Z,5.82
2023-05-10T17:21:47.598Z,8.05
2023-05-10T17:24:15.088Z,11.27
2023-05-10T17:26:42.285Z,10.68
2023-05-10T17:29:09.290Z,12.90
2023-05-10T17:31:36.594Z,10.23
2023-05-10T17:34:05.419Z,11.15
2023-05-10T17:36:33.544Z,8.65
2023-05-10T17:39:01.132Z,9.35
2023-05-10T17:41:29.027Z,9.02
2023-05-10T17:43:55.894Z,6.35
2023-05-10T17:46:23.383Z,7.13
2023-05-10T17:48:50.758Z,9.07
2023-05-10T17:51:19.053Z,13.68
2023-05-10T17:53:45.999Z,8.10
2023-05-10T17:56:13.211Z,10.55
2023-05-10T17:58:40.151Z,5.90
2023-05-10T18:01:07.399Z,6.55
2023-05-10T18:03:35.966Z,6.65
2023-05-10T18:06:04.491Z,5.40
2023-05-10T18:08:31.637Z,5.47
2023-05-10T18:10:58.898Z,12.63
2023-05-10T18:13:25.815Z,6.25
2023-05-10T18:15:53.353Z,11.73
2023-05-10T18:18:20.589Z,9.35
2023-05-10T18:20:47.882Z,7.70
2023-05-10T18:23:15.353Z,9.32
2023-05-10T18:25:42.612Z,6.80
2023-05-10T18:28:09.788Z,11.93
2023-05-10T18:30:37.587Z,13.90
2023-05-10T18:33:04.452Z,9.52
2023-05-10T18:35:31.686Z,12.07
2023-05-10T18:37:58.619Z,7.85
2023-05-10T18:40:27.277Z,10.93
2023-05-10T18:42:54.314Z,16.00
2023-05-10T18:45:21.618Z,13.60
2023-05-10T18:47:48.724Z,19.75
2023-05-10T18:50:17.277Z,10.30
2023-05-10T18:52:45.929Z,15.05
2023-05-10T18:55:13.143Z,13.05
2023-05-10T18:57:41.867Z,15.80
2023-05-10T19:00:11.288Z,19.38
2023-05-10T19:02:41.552Z,18.30
2023-05-10T19:05:09.561Z,14.23
2023-05-10T19:07:36.591Z,12.10
2023-05-10T19:10:04.023Z,13.48
2023-05-10T19:12:30.960Z,10.73
2023-05-10T19:14:58.122Z,6.57
2023-05-10T19:17:25.190Z,15.30
2023-05-10T19:19:52.498Z,7.57
2023-05-10T19:22:28.331Z,12.98
2023-05-10T19:25:04.156Z,14.43
2023-05-10T19:27:32.794Z,10.98
2023-05-10T19:30:01.693Z,13.25
2023-05-10T19:32:29.090Z,25.60
2023-05-10T19:34:56.886Z,20.65
2023-05-10T19:37:23.824Z,14.38
2023-05-10T19:39:51.720Z,9.13
2023-05-10T19:42:20.084Z,14.48
2023-05-10T19:44:47.284Z,12.05
2023-05-10T19:47:14.468Z,21.67
2023-05-10T19:49:41.723Z,13.50
2023-05-10T19:52:10.572Z,12.68
2023-05-10T19:54:38.298Z,14.70
2023-05-10T19:57:05.270Z,15.82
2023-05-10T19:59:32.446Z,21.63
2023-05-10T20:04:28.930Z,19.83
2023-05-10T20:09:23.002Z,15.98
2023-05-10T20:11:49.863Z,20.40
2023-05-10T20:14:18.228Z,23.98
2023-05-10T20:16:45.268Z,22.45
2023-05-10T20:19:12.534Z,26.55
2023-05-10T20:21:39.424Z,20.25
2023-05-10T20:24:07.808Z,18.50
2023-05-10T20:26:34.713Z,15.80
2023-05-10T20:29:01.913Z,21.50
2023-05-10T20:31:29.297Z,18.60
2023-05-10T20:33:56.540Z,15.57
2023-05-10T20:36:23.509Z,17.50
2023-05-10T20:38:50.719Z,17.60
2023-05-10T20:41:17.534Z,20.50
2023-05-10T20:43:44.754Z,14.10
2023-05-10T20:46:12.006Z,13.47
2023-05-10T20:48:39.272Z,15.33
2023-05-10T20:51:06.177Z,18.90
2023-05-10T20:53:33.292Z,20.93
2023-05-10T20:56:00.139Z,13.63
2023-05-10T20:58:27.244Z,17.07
2023-05-10T21:00:54.329Z,15.37
2023-05-10T21:03:21.462Z,15.33
2023-05-10T21:05:48.330Z,14.97
2023-05-10T21:08:15.433Z,16.83
2023-05-10T21:10:42.305Z,14.70
2023-05-10T21:13:09.446Z,22.70
2023-05-10T21:15:36.375Z,16.87
2023-05-10T21:18:03.870Z,19.97
2023-05-10T21:20:30.917Z,22.13
2023-05-10T21:22:58.396Z,18.43
2023-05-10T21:25:25.474Z,23.80
2023-05-10T21:27:52.782Z,15.13
2023-05-10T21:30:19.936Z,16.27
2023-05-10T21:32:47.409Z,16.50
2023-05-10T21:35:14.449Z,19.63
2023-05-10T21:37:41.674Z,14.90
2023-05-10T21:40:09.220Z,12.37
2023-05-10T21:42:36.362Z,15.90
2023-05-10T21:45:03.394Z,13.27
2023-05-10T21:47:30.786Z,13.57
2023-05-10T21:49:57.657Z,12.87
2023-05-10T21:52:24.844Z,11.40
2023-05-10T21:54:51.664Z,14.03
2023-05-10T21:57:18.818Z,12.67
2023-05-10T21:59:45.829Z,17.13
2023-05-10T22:02:13.094Z,11.33
2023-05-10T22:04:39.995Z,10.73
2023-05-10T22:07:07.098Z,12.90
2023-05-10T22:09:33.990Z,13.90
2023-05-10T22:12:01.130Z,10.27
2023-05-10T22:14:28.085Z,7.87
2023-05-10T22:16:55.292Z,10.40
2023-05-10T22:19:22.189Z,12.47
2023-05-10T22:21:49.720Z,12.57
2023-05-10T22:24:16.620Z,10.57
2023-05-10T22:26:43.871Z,11.07
2023-05-10T22:29:10.866Z,16.80
2023-05-10T22:31:38.322Z,14.80
2023-05-10T22:34:05.288Z,12.60
2023-05-10T22:36:32.547Z,12.90
2023-05-10T22:38:59.389Z,12.00
2023-05-10T22:41:26.675Z,9.63
2023-05-10T22:43:53.557Z,12.83
2023-05-10T22:46:20.789Z,16.50
2023-05-10T22:48:48.605Z,15.40
2023-05-10T22:51:15.814Z,14.03
2023-05-10T22:53:42.682Z,10.80
2023-05-10T22:56:09.897Z,13.20
2023-05-10T22:58:36.920Z,9.07
2023-05-10T23:01:04.283Z,12.23
2023-05-10T23:03:31.297Z,8.47
2023-05-10T23:05:58.443Z,9.97
2023-05-10T23:08:25.385Z,11.63
2023-05-10T23:10:52.585Z,13.33
2023-05-10T23:13:21.094Z,10.30
2023-05-10T23:15:48.351Z,12.32
2023-05-10T23:18:15.607Z,10.77
2023-05-10T23:20:43.065Z,9.73
2023-05-10T23:23:10.722Z,16.03
2023-05-10T23:25:38.124Z,9.67
2023-05-10T23:28:05.242Z,11.80
2023-05-10T23:30:32.448Z,10.17
2023-05-10T23:32:59.480Z,8.13
2023-05-10T23:35:26.729Z,12.03
2023-05-10T23:37:53.593Z,13.73
2023-05-10T23:40:22.291Z,10.10
2023-05-10T23:42:49.178Z,11.40
2023-05-10T23:45:16.319Z,9.43
2023-05-10T23:47:43.241Z,10.40
2023-05-10T23:50:10.771Z,10.13
2023-05-10T23:52:37.682Z,13.90
2023-05-10T23:55:05.068Z,11.63
2023-05-10T23:57:31.999Z,15.20
2023-05-10T23:59:59.194Z,8.27
